Time;durP1;ratioP1;P1;durP2;ratioP2;P2;SDS_P1;SDS_P2;PMS_P1;PMS_P2;Temp;Humidity;BMP_temperature;BMP_pressure;BME280_temperature;BME280_humidity;BME280_pressure;Samples;Min_cycle;Max_cycle;Signal;HPM_P1;HPM_P2
2022/11/16 07:14:34;;;;;;;116.73;77.27;;;;;;;7.01;89.33;93509.20;1555845;89;21147;-84
2022/11/16 07:17:10;;;;;;;131.00;84.87;;;;;;;7.10;88.92;93501.77;1580648;90;21110;-86
2022/11/16 07:19:38;;;;;;;120.85;73.47;;;;;;;7.12;88.88;93497.23;1492479;94;21841;-90
2022/11/16 07:22:14;;;;;;;116.53;73.40;;;;;;;7.24;89.36;93492.97;1502527;93;21899;-88
2022/11/16 07:25:06;;;;;;;124.33;77.27;;;;;;;7.36;88.80;93492.66;1456942;96;21744;-86
2022/11/16 07:27:56;;;;;;;225.62;119.55;;;;;;;7.44;89.16;93490.53;1435779;98;21149;-88
2022/11/16 07:30:36;;;;;;;130.78;81.92;;;;;;;7.60;88.70;93487.48;1429190;97;21577;-89
2022/11/16 07:33:36;;;;;;;137.15;82.57;;;;;;;7.69;88.47;93484.71;1415750;97;21574;-88
2022/11/16 07:39:16;;;;;;;97.82;66.47;;;;;;;7.89;88.36;93472.66;1286877;109;21200;-91
2022/11/16 07:41:51;;;;;;;112.70;73.33;;;;;;;7.92;87.57;93475.84;1239488;113;21276;-87
2022/11/16 07:44:29;;;;;;;131.50;80.30;;;;;;;7.97;87.35;93478.56;1244590;113;21351;-89
2022/11/16 07:47:19;;;;;;;128.87;80.40;;;;;;;8.05;86.93;93472.94;1208745;115;22540;-90
2022/11/16 07:56:00;;;;;;;104.38;63.28;;;;;;;8.21;85.89;93474.72;1184255;119;21280;-88
2022/11/16 08:14:43;;;;;;;49.50;31.75;;;;;;;8.66;85.37;93453.94;1158042;120;21274;-89
2022/11/16 08:17:30;;;;;;;50.00;35.55;;;;;;;8.69;84.29;93454.40;1165975;118;21380;-89
2022/11/16 08:20:10;;;;;;;45.43;32.10;;;;;;;8.73;84.10;93453.61;1213296;117;21194;-88
2022/11/16 08:23:06;;;;;;;40.92;28.73;;;;;;;8.79;83.84;93446.87;1201310;117;21187;-89
2022/11/16 08:25:57;;;;;;;48.42;34.13;;;;;;;8.84;83.46;93438.74;1196201;117;21250;-89
2022/11/16 08:28:57;;;;;;;53.13;39.50;;;;;;;8.86;83.35;93445.91;1201147;118;21260;-90
2022/11/16 08:38:31;;;;;;;72.42;49.65;;;;;;;9.10;83.91;93438.42;1162847;114;22916;-86
2022/11/16 08:42:09;;;;;;;102.00;64.65;;;;;;;9.43;83.39;93434.31;1256074;113;21281;-88
2022/11/16 08:44:48;;;;;;;96.78;62.60;;;;;;;9.61;83.21;93438.27;1259090;112;21693;-89
2022/11/16 08:47:21;;;;;;;117.67;74.05;;;;;;;9.71;82.90;93430.70;1257815;111;21171;-89
2022/11/16 08:50:11;;;;;;;181.43;107.45;;;;;;;9.85;82.89;93423.08;1263657;111;21276;-85
2022/11/16 08:52:51;;;;;;;98.27;61.45;;;;;;;10.04;82.01;93420.30;1262897;112;21776;-86
2022/11/16 08:55:33;;;;;;;71.12;46.33;;;;;;;10.08;81.33;93416.74;1277560;110;21205;-90
2022/11/16 08:58:10;;;;;;;69.30;45.33;;;;;;;10.08;80.78;93417.52;1231065;114;21537;-87
2022/11/16 09:06:35;;;;;;;;;;;;;;;;;;;;;
2022/11/16 09:35:16;;;;;;;56.15;37.33;;;;;;;10.30;77.61;93397.84;1212324;117;21263;-90
2022/11/16 09:38:54;;;;;;;54.45;35.23;;;;;;;10.19;78.14;93394.95;1198201;117;21293;-89
2022/11/16 09:42:55;;;;;;;62.40;42.78;;;;;;;10.23;78.69;93384.50;1189358;117;21239;-90
2022/11/16 09:45:47;;;;;;;61.65;39.70;;;;;;;10.36;79.13;93373.96;1236095;113;21200;-90
2022/11/16 09:51:13;;;;;;;60.10;38.15;;;;;;;11.35;78.29;93360.17;1239172;111;21393;-89
2022/11/16 09:54:21;;;;;;;60.03;41.53;;;;;;;12.05;76.61;93364.11;1270701;112;21555;-90
2022/11/16 09:56:59;;;;;;;37.25;26.25;;;;;;;12.51;75.09;93353.66;1265555;111;21261;-89
2022/11/16 10:03:07;;;;;;;31.93;22.48;;;;;;;13.57;72.10;93338.39;1276566;110;20246;-92
2022/11/16 10:06:09;;;;;;;;;;;;;;;;;;;;;
2022/11/16 10:22:29;;;;;;;;;;;;;;;;;;;;;
2022/11/16 10:27:39;;;;;;;;;;;;;;;;;;;;;
2022/11/16 10:33:59;;;;;;;31.45;21.82;;;;;;;15.06;64.14;93305.93;1148021;120;21947;-89
2022/11/16 10:36:33;;;;;;;32.03;23.38;;;;;;;15.53;62.76;93293.59;1111794;125;21307;-89
2022/11/16 10:39:17;;;;;;;30.88;22.27;;;;;;;15.69;61.86;93294.13;1108835;127;21284;-89
2022/11/16 10:41:55;;;;;;;26.33;20.20;;;;;;;15.72;61.99;93284.78;1160236;121;21390;-91
2022/11/16 10:44:40;;;;;;;25.37;19.32;;;;;;;15.68;62.18;93284.30;1149038;123;21744;-90
2022/11/16 10:47:49;;;;;;;22.52;16.12;;;;;;;15.68;61.83;93280.77;1158170;123;21339;-90
2022/11/16 10:50:44;;;;;;;21.20;15.93;;;;;;;15.70;61.62;93277.61;1160762;117;21289;-92
2022/11/16 10:54:18;;;;;;;21.57;14.45;;;;;;;15.49;61.64;93279.89;1170672;120;21339;-91
2022/11/16 10:57:00;;;;;;;23.70;15.55;;;;;;;15.23;62.61;93273.36;1185413;119;21219;-93
2022/11/16 10:59:45;;;;;;;22.52;15.48;;;;;;;15.05;62.46;93262.87;1222624;115;21228;-91
2022/11/16 11:02:34;;;;;;;25.25;18.85;;;;;;;15.00;63.35;93262.91;1232164;113;21237;-88
2022/11/16 11:05:21;;;;;;;27.05;16.45;;;;;;;14.87;64.00;93258.55;1206195;114;21247;-87
2022/11/16 11:12:36;;;;;;;23.70;16.00;;;;;;;14.63;65.14;93247.33;1283654;108;21143;-91
2022/11/16 11:13:40;;;;;;;27.05;18.57;;;;;;;14.42;65.73;93248.14;1255609;112;21425;-91
2022/11/16 11:16:27;;;;;;;25.17;17.12;;;;;;;14.44;66.42;93252.66;1289701;108;21358;-92
2022/11/16 11:19:31;;;;;;;22.55;15.60;;;;;;;14.77;65.64;93251.16;1268993;110;21341;-93
2022/11/16 11:22:20;;;;;;;18.57;14.60;;;;;;;14.88;64.57;93248.36;1242000;112;21222;-91
2022/11/16 11:25:02;;;;;;;19.98;14.85;;;;;;;14.71;65.04;93255.98;1256976;111;21759;-94
2022/11/16 11:27:40;;;;;;;20.30;14.60;;;;;;;14.57;65.51;93252.88;1240854;113;21249;-91
2022/11/16 11:52:02;;;;;;;;;;;;;;;;;;;;;
2022/11/16 11:54:39;;;;;;;;;;;;;;;;;;;;;
2022/11/16 11:57:25;;;;;;;29.57;17.10;;;;;;;13.09;70.60;93237.00;1160909;121;21462;-93
2022/11/16 12:00:06;;;;;;;24.07;16.12;;;;;;;13.78;70.88;93235.41;1166673;121;21237;-90
2022/11/16 12:03:28;;;;;;;28.80;16.02;;;;;;;15.02;69.26;93226.48;1154621;120;21291;-87
2022/11/16 12:06:18;;;;;;;33.67;20.05;;;;;;;16.42;64.56;93225.04;1148026;122;21303;-89
2022/11/16 12:09:27;;;;;;;37.73;26.80;;;;;;;17.38;60.11;93218.67;1157587;122;21461;-89
2022/11/16 12:12:45;;;;;;;25.12;17.37;;;;;;;17.26;58.83;93220.73;1189218;120;21196;-92
2022/11/16 12:15:44;;;;;;;20.70;17.20;;;;;;;16.68;58.50;93220.45;1175007;119;21235;-91
2022/11/16 12:18:23;;;;;;;22.25;16.32;;;;;;;16.04;59.19;93219.22;1196586;117;21341;-87
2022/11/16 12:21:15;;;;;;;19.65;13.00;;;;;;;15.56;60.29;93219.77;1195222;118;21281;-89
2022/11/16 12:27:57;;;;;;;22.93;12.60;;;;;;;14.99;62.73;93211.55;1198361;117;21223;-91
2022/11/16 12:30:37;;;;;;;20.80;13.18;;;;;;;15.13;63.32;93214.59;1242325;112;21418;-93
2022/11/16 12:33:43;;;;;;;;;;;;;;;;;;;;;
2022/11/16 12:36:21;;;;;;;25.08;14.75;;;;;;;16.60;61.53;93207.67;1258391;112;21241;-87
2022/11/16 12:39:10;;;;;;;19.57;13.18;;;;;;;17.73;57.86;93200.95;1266051;110;21192;-89
2022/11/16 12:42:09;;;;;;;19.67;11.75;;;;;;;18.17;55.03;93199.56;1235139;112;21280;-86
2022/11/16 12:44:58;;;;;;;18.98;12.40;;;;;;;18.03;53.84;93195.25;1273734;110;21214;-92
2022/11/16 12:47:34;;;;;;;18.20;13.13;;;;;;;18.48;54.33;93196.72;1272526;110;21220;-90
2022/11/16 12:50:43;;;;;;;21.42;13.80;;;;;;;19.34;52.44;93187.75;1341402;105;21537;-93
2022/11/16 12:53:56;;;;;;;16.87;9.55;;;;;;;20.10;50.61;93188.63;1310371;106;21205;-91
2022/11/16 12:56:39;;;;;;;9.10;4.00;;;;;;;20.85;45.86;93189.18;1348854;103;21693;-89
2022/11/16 12:59:32;;;;;;;4.55;3.70;;;;;;;21.30;39.95;93192.21;1379364;103;21145;-89
2022/11/16 19:09:01;;;;;;;261.80;123.38;;;;;;;6.97;92.04;93104.02;1751028;79;26380;-86
2022/11/16 19:11:28;;;;;;;227.62;116.53;;;;;;;6.93;92.21;93103.44;1737061;81;21097;-86
2022/11/16 19:14:03;;;;;;;195.70;104.20;;;;;;;6.98;92.12;93107.50;1731385;82;21250;-85
2022/11/16 19:16:31;;;;;;;180.00;97.78;;;;;;;7.02;91.98;93110.22;1702490;83;21122;-86
2022/11/16 19:21:29;;;;;;;312.63;155.60;;;;;;;7.05;91.91;93107.17;1584367;88;21027;-85
2022/11/16 19:23:56;;;;;;;277.85;142.20;;;;;;;7.06;92.16;93103.95;1621396;88;21056;-84
2022/11/16 19:26:29;;;;;;;253.70;132.60;;;;;;;7.16;92.54;93102.08;1622712;87;21607;-85
2022/11/16 19:28:56;;;;;;;255.03;128.27;;;;;;;7.23;92.01;93105.84;1618362;87;21073;-85
2022/11/16 19:31:27;;;;;;;260.02;138.10;;;;;;;7.27;91.67;93108.39;1591351;87;21267;-85
2022/11/16 19:33:55;;;;;;;312.95;165.15;;;;;;;7.26;91.35;93109.61;1618620;87;21037;-85
2022/11/16 19:36:22;;;;;;;321.93;170.80;;;;;;;7.23;91.34;93111.31;1604033;87;21051;-85
2022/11/16 19:38:49;;;;;;;324.70;170.32;;;;;;;7.22;91.41;93101.60;1609751;87;21418;-86
2022/11/16 19:41:19;;;;;;;338.35;184.65;;;;;;;7.27;91.55;93106.42;1613098;87;20974;-85
2022/11/16 19:43:46;;;;;;;347.23;186.45;;;;;;;7.31;91.37;93107.00;1625223;87;21041;-86
2022/11/16 19:48:45;;;;;;;372.70;179.57;;;;;;;7.38;91.28;93106.64;1587973;88;21013;-85
2022/11/16 19:51:19;;;;;;;294.60;151.95;;;;;;;7.47;91.50;93096.25;1591542;88;21328;-86
2022/11/16 19:53:48;;;;;;;335.35;176.63;;;;;;;7.52;90.79;93102.46;1567827;90;21095;-83
2022/11/16 19:56:16;;;;;;;295.60;156.00;;;;;;;7.46;90.31;93097.47;1568249;90;21119;-82
2022/11/16 19:58:43;;;;;;;249.00;127.72;;;;;;;7.39;90.12;93104.08;1578062;89;21077;-84
2022/11/16 20:01:26;;;;;;;231.95;123.62;;;;;;;7.34;90.15;93104.70;1578695;89;21028;-84
2022/11/16 20:03:55;;;;;;;260.88;138.68;;;;;;;7.30;90.16;93104.75;1552672;89;21865;-85
2022/11/16 20:06:25;;;;;;;275.00;148.68;;;;;;;7.28;90.64;93101.10;1573914;89;21231;-85
2022/11/16 20:08:54;;;;;;;269.57;147.72;;;;;;;7.31;90.71;93108.99;1571702;90;21073;-85
2022/11/16 20:11:27;;;;;;;293.58;156.72;;;;;;;7.32;90.63;93098.94;1569007;90;21046;-84
2022/11/16 20:13:55;;;;;;;340.68;191.15;;;;;;;7.33;90.74;93101.81;1553224;91;21015;-85
2022/11/16 20:16:25;;;;;;;339.05;185.97;;;;;;;7.32;90.33;93099.56;1548366;91;21951;-85
2022/11/16 20:18:52;;;;;;;318.60;170.80;;;;;;;7.28;90.35;93098.36;1576596;90;21087;-83
2022/11/16 20:21:29;;;;;;;333.47;186.82;;;;;;;7.30;90.67;93094.55;1586457;90;21126;-84
2022/11/16 20:23:58;;;;;;;346.98;182.97;;;;;;;7.26;90.33;93093.97;1580655;90;21083;-85
2022/11/16 20:26:27;;;;;;;333.05;171.25;;;;;;;7.22;90.52;93087.93;1583646;90;21059;-85
2022/11/16 20:28:54;;;;;;;323.75;173.75;;;;;;;7.23;90.50;93085.94;1583469;90;21949;-84
2022/11/16 20:31:26;;;;;;;330.20;175.18;;;;;;;7.22;90.57;93088.52;1566595;90;21078;-85
2022/11/16 20:33:55;;;;;;;343.23;183.85;;;;;;;7.22;90.48;93079.72;1576345;89;21477;-85
2022/11/16 20:36:24;;;;;;;326.77;181.05;;;;;;;7.24;91.04;93070.44;1587705;89;21071;-85
2022/11/16 20:38:51;;;;;;;327.18;176.70;;;;;;;7.27;90.73;93079.67;1585778;90;21037;-86
2022/11/16 20:41:21;;;;;;;314.00;165.22;;;;;;;7.28;90.90;93087.42;1581984;89;21273;-85
2022/11/16 20:43:53;;;;;;;268.82;148.28;;;;;;;7.29;90.54;93090.30;1557928;90;20940;-85
2022/11/16 20:46:22;;;;;;;276.27;148.32;;;;;;;7.30;90.42;93089.70;1610566;88;21091;-86
2022/11/16 20:48:48;;;;;;;305.57;172.02;;;;;;;7.31;90.46;93087.11;1602002;88;21221;-84
2022/11/16 20:51:17;;;;;;;326.88;182.72;;;;;;;7.33;90.42;93084.04;1644565;84;21003;-84
2022/11/16 20:53:46;;;;;;;346.68;196.55;;;;;;;7.33;90.55;93084.04;1696461;83;21138;-84
2022/11/16 20:56:13;;;;;;;341.88;189.07;;;;;;;7.35;90.62;93077.48;1672367;85;20983;-85
2022/11/16 20:58:41;;;;;;;376.45;201.02;;;;;;;7.37;90.48;93076.41;1635640;85;21027;-85
2022/11/16 21:01:15;;;;;;;336.40;185.65;;;;;;;7.41;90.64;93078.38;1665160;85;21726;-86
2022/11/16 21:03:43;;;;;;;370.75;191.90;;;;;;;7.47;90.75;93062.82;1655962;85;21719;-85
2022/11/16 21:06:12;;;;;;;372.25;196.25;;;;;;;7.52;90.36;93071.00;1660198;85;21877;-85
2022/11/16 21:08:41;;;;;;;354.77;188.37;;;;;;;7.49;89.89;93074.05;1664400;85;21097;-85
2022/11/16 21:11:14;;;;;;;283.60;155.15;;;;;;;7.40;89.70;93080.20;1662467;85;21522;-84
2022/11/16 21:16:30;;;;;;;279.32;154.45;;;;;;;7.30;89.94;93084.98;1661967;85;21513;-83
2022/11/16 21:18:57;;;;;;;305.83;172.35;;;;;;;7.29;90.10;93079.36;1669184;85;21234;-85
2022/11/16 21:21:25;;;;;;;324.35;178.12;;;;;;;7.31;90.33;93079.66;1632039;85;21111;-83
2022/11/16 21:23:53;;;;;;;335.40;183.15;;;;;;;7.34;90.48;93074.61;1626460;86;21036;-84
2022/11/16 21:26:26;;;;;;;366.95;199.07;;;;;;;7.43;90.81;93073.19;1609713;86;21161;-83
2022/11/16 21:28:52;;;;;;;376.50;199.12;;;;;;;7.51;90.47;93075.70;1616227;87;21154;-85
2022/11/16 21:31:24;;;;;;;363.60;203.00;;;;;;;7.55;89.80;93076.91;1606106;88;21226;-84
2022/11/16 21:33:53;;;;;;;392.62;221.60;;;;;;;7.50;89.29;93072.83;1595326;88;20991;-84
2022/11/16 21:36:22;;;;;;;392.57;223.35;;;;;;;7.40;89.20;93078.23;1607293;87;21067;-84
2022/11/16 21:38:51;;;;;;;385.90;218.27;;;;;;;7.36;89.57;93071.42;1594541;88;21190;-84
2022/11/16 21:41:19;;;;;;;376.12;199.65;;;;;;;7.37;89.84;93072.30;1585990;89;21123;-85
2022/11/16 21:43:46;;;;;;;367.15;205.95;;;;;;;7.42;90.00;93068.17;1578533;89;21240;-84
2022/11/16 21:46:22;;;;;;;373.43;209.75;;;;;;;7.44;90.01;93061.02;1600729;88;21178;-84
2022/11/16 21:48:51;;;;;;;397.20;218.27;;;;;;;7.53;90.40;93060.94;1567273;90;21069;-84
2022/11/16 21:51:19;;;;;;;427.15;234.20;;;;;;;7.62;90.01;93065.59;1585524;89;21145;-84
2022/11/16 21:53:46;;;;;;;377.00;199.23;;;;;;;7.58;89.22;93062.28;1611178;87;21157;-84
2022/11/16 21:56:17;;;;;;;315.18;169.97;;;;;;;7.49;89.09;93059.00;1620053;87;22101;-85
2022/11/16 21:58:44;;;;;;;334.23;181.12;;;;;;;7.46;89.25;93066.02;1618293;87;21104;-85
2022/11/16 22:01:11;;;;;;;360.95;193.87;;;;;;;7.42;89.09;93054.50;1597002;88;21135;-84
2022/11/16 22:03:38;;;;;;;380.92;209.75;;;;;;;7.38;89.22;93051.94;1618692;87;21052;-84
2022/11/16 22:08:51;;;;;;;439.00;248.90;;;;;;;7.39;89.79;93042.53;1624303;87;21168;-83
2022/11/16 22:11:20;;;;;;;381.35;205.05;;;;;;;7.39;89.81;93052.11;1615947;88;21086;-85
2022/11/16 22:13:48;;;;;;;342.30;186.22;;;;;;;7.37;89.54;93055.89;1630633;87;21121;-86
2022/11/16 22:16:15;;;;;;;350.22;189.52;;;;;;;7.30;89.52;93058.25;1634661;87;21022;-83
2022/11/16 22:18:44;;;;;;;330.50;185.95;;;;;;;7.21;89.63;93054.97;1635396;87;21059;-84
2022/11/16 22:21:10;;;;;;;361.32;198.02;;;;;;;7.19;90.04;93051.92;1611538;87;21233;-84
2022/11/16 22:23:37;;;;;;;364.95;200.32;;;;;;;7.25;90.63;93045.20;1629952;87;21488;-84
2022/11/16 22:26:09;;;;;;;302.68;165.30;;;;;;;7.32;90.63;93056.55;1644239;86;21064;-85
2022/11/16 22:28:36;;;;;;;322.73;173.68;;;;;;;7.32;90.35;93051.08;1642072;86;21467;-84
2022/11/16 22:31:05;;;;;;;335.45;172.25;;;;;;;7.25;90.09;93045.97;1650839;83;20940;-83
2022/11/16 22:33:32;;;;;;;317.90;168.82;;;;;;;7.23;90.31;93035.34;1693228;83;21209;-84
2022/11/16 22:35:59;;;;;;;329.43;182.05;;;;;;;7.26;90.74;93029.70;1692713;83;21149;-85
2022/11/16 22:40:59;;;;;;;362.63;200.82;;;;;;;7.35;90.42;93035.09;1713256;83;21038;-84
2022/11/16 22:43:28;;;;;;;352.85;186.18;;;;;;;7.35;90.75;93028.25;1693402;83;21015;-84
2022/11/16 22:46:03;;;;;;;403.40;215.25;;;;;;;7.42;90.67;93025.78;1714207;82;21226;-83
2022/11/16 22:48:37;;;;;;;408.87;220.80;;;;;;;7.43;90.43;93021.22;1685336;83;20996;-84
2022/11/16 22:51:24;;;;;;;426.70;235.50;;;;;;;7.45;90.50;93023.47;1687421;83;21458;-85
2022/11/16 22:53:56;;;;;;;434.20;237.32;;;;;;;7.43;90.30;93021.81;1669545;83;21136;-85
2022/11/16 22:56:23;;;;;;;442.10;243.57;;;;;;;7.38;90.31;93027.31;1684899;83;20954;-84
2022/11/16 22:58:50;;;;;;;420.88;231.53;;;;;;;7.40;90.93;93021.39;1688816;83;21148;-82
2022/11/16 23:01:18;;;;;;;415.20;224.22;;;;;;;7.47;91.07;93026.48;1691629;83;21000;-84
2022/11/16 23:03:45;;;;;;;320.35;174.62;;;;;;;7.53;90.94;93021.27;1697803;83;21066;-85
2022/11/16 23:06:12;;;;;;;363.50;193.45;;;;;;;7.52;90.28;93019.02;1679718;84;21633;-84
2022/11/16 23:08:39;;;;;;;334.73;188.37;;;;;;;7.43;90.20;93021.22;1689915;83;21526;-84
2022/11/16 23:16:42;;;;;;;313.02;171.45;;;;;;;7.16;90.31;93028.25;1647447;86;20995;-83
2022/11/16 23:27:43;;;;;;;307.45;174.07;;;;;;;7.10;91.49;93011.58;1647558;86;20982;-85
2022/11/16 23:30:11;;;;;;;331.57;184.43;;;;;;;7.15;91.48;93008.97;1646764;86;21649;-85
2022/11/16 23:32:38;;;;;;;322.10;180.75;;;;;;;7.18;91.40;93009.39;1644564;86;21738;-84
2022/11/16 23:35:05;;;;;;;315.55;178.05;;;;;;;7.22;91.56;92999.06;1644106;86;21113;-84
2022/11/16 23:37:32;;;;;;;333.93;183.05;;;;;;;7.27;91.62;93001.13;1645479;86;21392;-84
2022/11/16 23:39:59;;;;;;;344.93;190.85;;;;;;;7.35;91.78;93001.53;1647385;85;21032;-84
2022/11/16 23:45:12;;;;;;;349.07;194.25;;;;;;;7.38;90.89;92994.49;1654724;86;20994;-84
2022/11/16 23:47:39;;;;;;;344.95;190.68;;;;;;;7.35;90.96;92987.86;1648384;86;20990;-84
2022/11/16 23:50:08;;;;;;;361.37;209.35;;;;;;;7.37;91.12;92984.78;1647334;87;21262;-84
2022/11/16 23:52:36;;;;;;;386.82;225.10;;;;;;;7.41;90.99;92986.74;1647629;87;21026;-83
2022/11/16 23:55:05;;;;;;;411.20;231.82;;;;;;;7.40;90.89;92985.23;1646403;86;20987;-84
2022/11/16 23:57:32;;;;;;;392.07;215.87;;;;;;;7.45;91.43;92986.54;1641735;86;20995;-83
2022/11/16 23:59:58;;;;;;;412.00;227.00;;;;;;;7.50;90.92;92979.06;1646227;86;22278;-84
